Time;durP1;ratioP1;P1;durP2;ratioP2;P2;SDS_P1;SDS_P2;PMS_P1;PMS_P2;Temp;Humidity;BMP_temperature;BMP_pressure;BME280_temperature;BME280_humidity;BME280_pressure;Samples;Min_cycle;Max_cycle;Signal;HPM_P1;HPM_P2
2023/08/23 00:02:06;;;;;;;10.95;6.63;;;27.50;76.30;;;;;;6126292;28;83542;-65
2023/08/23 00:05:06;;;;;;;11.75;6.38;;;27.20;78.00;;;;;;6128158;28;80459;-64
2023/08/23 00:08:07;;;;;;;11.55;6.43;;;27.00;79.90;;;;;;6126345;28;82543;-60
2023/08/23 00:11:07;;;;;;;12.73;6.50;;;27.20;79.50;;;;;;6126695;28;80671;-59
2023/08/23 00:14:08;;;;;;;19.45;6.85;;;27.40;79.30;;;;;;6132287;28;81071;-60
2023/08/23 00:17:08;;;;;;;11.57;6.13;;;27.40;77.90;;;;;;6131850;28;80546;-58
2023/08/23 00:20:09;;;;;;;9.32;6.85;;;27.40;77.90;;;;;;6132640;28;81235;-59
2023/08/23 00:23:09;;;;;;;8.80;6.65;;;27.40;77.70;;;;;;6131887;28;80975;-59
2023/08/23 00:26:11;;;;;;;9.25;6.25;;;27.40;77.70;;;;;;6131927;28;81185;-48
2023/08/23 00:29:12;;;;;;;11.27;6.53;;;27.50;77.40;;;;;;6131352;28;81609;-53
2023/08/23 00:32:12;;;;;;;9.30;6.82;;;27.60;77.40;;;;;;6129988;28;83737;-53
2023/08/23 00:35:13;;;;;;;11.60;6.72;;;27.60;77.00;;;;;;6130746;28;80304;-53
2023/08/23 00:38:13;;;;;;;12.38;6.63;;;27.60;76.90;;;;;;6131842;28;81582;-53
2023/08/23 00:41:14;;;;;;;8.43;6.32;;;27.60;77.30;;;;;;6130892;28;81271;-53
2023/08/23 00:44:15;;;;;;;12.02;7.03;;;27.60;76.60;;;;;;6131221;28;80471;-50
2023/08/23 00:47:15;;;;;;;11.18;6.25;;;27.50;76.40;;;;;;6123635;28;82618;-50
2023/08/23 00:50:16;;;;;;;12.90;7.25;;;27.50;77.00;;;;;;6148849;28;80261;-55
2023/08/23 00:53:16;;;;;;;11.02;7.45;;;27.50;76.80;;;;;;6138535;28;83678;-52
2023/08/23 00:56:17;;;;;;;11.30;7.15;;;27.60;76.90;;;;;;6141279;28;80394;-53
2023/08/23 00:59:19;;;;;;;11.50;7.82;;;27.60;77.00;;;;;;6141724;28;81119;-53
2023/08/23 01:02:20;;;;;;;20.08;7.55;;;27.60;76.90;;;;;;6131116;28;80827;-53
2023/08/23 01:05:20;;;;;;;8.40;6.70;;;27.60;76.70;;;;;;6126041;28;80500;-48
2023/08/23 01:08:21;;;;;;;7.93;6.95;;;27.50;77.10;;;;;;6129803;28;80317;-51
2023/08/23 01:11:22;;;;;;;10.13;7.50;;;27.40;77.50;;;;;;6111013;28;81323;-53
2023/08/23 01:14:22;;;;;;;12.05;6.40;;;27.30;78.00;;;;;;6135735;28;82090;-49
2023/08/23 01:17:23;;;;;;;11.65;6.80;;;27.40;78.00;;;;;;6126885;28;80933;-53
2023/08/23 01:20:23;;;;;;;12.38;7.47;;;27.50;77.70;;;;;;6125869;28;82960;-52
2023/08/23 01:23:24;;;;;;;12.77;6.72;;;27.60;77.60;;;;;;6127202;28;80835;-59
2023/08/23 01:26:24;;;;;;;11.90;7.80;;;27.60;77.40;;;;;;6126417;28;81480;-58
2023/08/23 01:29:25;;;;;;;9.80;6.72;;;27.70;77.40;;;;;;6128808;28;80653;-58
2023/08/23 01:32:26;;;;;;;11.25;7.18;;;27.70;76.90;;;;;;6129316;28;82386;-58
2023/08/23 01:35:26;;;;;;;9.98;7.13;;;27.70;76.60;;;;;;6129306;28;80934;-58
2023/08/23 01:38:27;;;;;;;11.32;7.78;;;27.70;76.50;;;;;;6147793;28;88107;-60
2023/08/23 01:41:27;;;;;;;8.48;7.20;;;27.60;76.80;;;;;;6155128;28;80476;-53
2023/08/23 01:44:28;;;;;;;15.85;8.13;;;27.50;77.30;;;;;;6154922;28;80961;-51
2023/08/23 01:47:28;;;;;;;9.60;7.25;;;27.20;78.00;;;;;;6152532;28;81466;-51
2023/08/23 01:50:29;;;;;;;11.60;7.15;;;27.10;79.10;;;;;;6154130;28;80467;-53
2023/08/23 01:53:29;;;;;;;11.18;8.18;;;27.00;79.20;;;;;;6133504;28;80452;-49
2023/08/23 01:56:30;;;;;;;10.70;8.15;;;26.90;79.90;;;;;;6143860;28;83392;-51
2023/08/23 01:59:30;;;;;;;14.82;7.72;;;27.10;79.60;;;;;;6127664;28;83349;-58
2023/08/23 02:02:31;;;;;;;11.82;7.70;;;27.00;79.80;;;;;;6140807;28;81460;-58
2023/08/23 02:05:32;;;;;;;12.52;9.02;;;27.00;79.90;;;;;;6149345;28;80282;-58
2023/08/23 02:08:33;;;;;;;14.02;8.88;;;26.70;80.80;;;;;;6153959;28;80061;-59
2023/08/23 02:11:36;;;;;;;10.95;8.45;;;26.90;81.10;;;;;;6163110;28;83726;-59
2023/08/23 02:14:37;;;;;;;11.63;8.73;;;26.90;80.90;;;;;;6119011;28;83446;-59
2023/08/23 02:17:37;;;;;;;16.30;9.13;;;26.80;81.70;;;;;;6128368;28;83334;-64
2023/08/23 02:20:38;;;;;;;10.85;7.68;;;26.70;82.30;;;;;;6128416;28;83678;-63
2023/08/23 02:23:39;;;;;;;12.60;9.23;;;27.00;82.00;;;;;;6129670;28;81133;-64
2023/08/23 02:26:39;;;;;;;14.07;8.20;;;27.10;81.20;;;;;;6129936;28;82148;-62
2023/08/23 02:29:40;;;;;;;11.73;7.80;;;27.20;80.70;;;;;;6128972;28;82945;-61
2023/08/23 02:32:41;;;;;;;9.23;7.70;;;27.30;80.40;;;;;;6121607;28;83585;-65
2023/08/23 02:35:44;;;;;;;11.73;8.18;;;27.40;80.00;;;;;;6127190;28;83263;-58
2023/08/23 02:38:44;;;;;;;9.70;7.53;;;27.40;79.90;;;;;;6127763;28;81764;-58
2023/08/23 02:41:45;;;;;;;10.63;8.00;;;27.50;80.10;;;;;;6127760;28;80836;-57
2023/08/23 02:44:45;;;;;;;14.30;8.90;;;27.50;79.70;;;;;;6127900;28;83025;-58
2023/08/23 02:47:46;;;;;;;12.15;7.78;;;27.40;80.20;;;;;;6123397;28;83475;-57
2023/08/23 02:50:47;;;;;;;12.00;8.10;;;27.50;80.30;;;;;;6128313;28;80852;-58
2023/08/23 02:53:47;;;;;;;15.18;8.55;;;27.60;80.00;;;;;;6127714;28;80488;-58
2023/08/23 02:56:48;;;;;;;11.77;8.73;;;27.60;79.90;;;;;;6121184;28;83201;-56
2023/08/23 02:59:48;;;;;;;13.18;9.18;;;27.60;79.80;;;;;;6105890;28;82975;-56
2023/08/23 03:02:51;;;;;;;14.25;8.50;;;27.60;79.60;;;;;;6126178;28;83034;-55
2023/08/23 03:05:51;;;;;;;14.05;8.82;;;27.60;79.90;;;;;;6126794;28;83382;-57
2023/08/23 03:08:52;;;;;;;14.50;8.57;;;27.70;79.70;;;;;;6127910;28;80815;-58
2023/08/23 03:11:53;;;;;;;12.15;9.07;;;27.70;79.60;;;;;;6125383;28;80562;-64
2023/08/23 03:14:53;;;;;;;12.63;8.85;;;27.70;79.50;;;;;;6126707;28;82264;-64
2023/08/23 03:17:54;;;;;;;10.80;8.85;;;27.80;79.50;;;;;;6129221;28;81305;-64
2023/08/23 03:20:54;;;;;;;11.57;8.60;;;27.70;79.60;;;;;;6126759;28;81409;-62
2023/08/23 03:23:55;;;;;;;9.52;8.35;;;27.70;79.70;;;;;;6127103;28;80291;-63
2023/08/23 03:26:55;;;;;;;13.02;8.65;;;27.70;79.50;;;;;;6128962;28;80652;-62
2023/08/23 03:29:56;;;;;;;10.70;7.95;;;27.80;79.30;;;;;;6128303;28;80501;-54
2023/08/23 03:32:57;;;;;;;13.43;8.80;;;27.80;79.30;;;;;;6118461;28;83030;-54
2023/08/23 03:35:58;;;;;;;13.20;8.60;;;27.80;79.50;;;;;;6124562;28;83226;-55
2023/08/23 03:38:59;;;;;;;13.50;8.70;;;27.80;79.60;;;;;;6101498;28;84221;-52
2023/08/23 03:42:02;;;;;;;14.13;9.38;;;27.80;79.60;;;;;;6141830;28;87284;-51
2023/08/23 03:45:03;;;;;;;22.00;10.23;;;27.80;80.30;;;;;;6143597;28;83166;-53
2023/08/23 03:48:05;;;;;;;12.63;8.45;;;27.80;79.80;;;;;;6134268;28;86303;-64
2023/08/23 03:51:06;;;;;;;13.30;9.18;;;27.80;79.80;;;;;;6136698;28;85443;-64
2023/08/23 03:54:06;;;;;;;14.57;9.88;;;27.80;79.60;;;;;;6119718;28;81530;-69
2023/08/23 03:57:07;;;;;;;18.33;9.30;;;27.80;79.60;;;;;;6126109;28;83832;-65
2023/08/23 04:00:07;;;;;;;11.02;8.35;;;27.70;80.00;;;;;;6124576;28;81712;-65
2023/08/23 04:03:15;;;;;;;13.88;8.80;;;27.70;79.90;;;;;;6123228;28;83539;-61
2023/08/23 04:06:15;;;;;;;14.35;8.70;;;27.70;80.40;;;;;;6155656;28;83410;-62
2023/08/23 04:09:16;;;;;;;15.02;9.20;;;27.60;80.40;;;;;;6151048;28;80553;-62
2023/08/23 04:12:17;;;;;;;15.93;9.35;;;27.50;80.80;;;;;;6148569;28;80179;-62
2023/08/23 04:15:18;;;;;;;12.68;9.27;;;27.50;81.10;;;;;;6148018;28;80929;-58
2023/08/23 04:18:18;;;;;;;13.50;9.45;;;27.50;81.20;;;;;;6146914;28;81528;-60
2023/08/23 04:21:19;;;;;;;13.98;9.98;;;27.50;81.20;;;;;;6149817;28;80251;-61
2023/08/23 04:24:20;;;;;;;16.17;10.93;;;27.40;81.80;;;;;;6145382;28;83779;-62
2023/08/23 04:27:20;;;;;;;11.27;8.63;;;27.30;82.60;;;;;;6146878;28;83732;-63
2023/08/23 04:30:21;;;;;;;13.07;9.55;;;27.40;82.70;;;;;;6147931;28;86165;-61
2023/08/23 04:33:21;;;;;;;13.43;9.65;;;27.40;81.90;;;;;;6148546;28;83034;-61
2023/08/23 04:36:22;;;;;;;12.38;8.82;;;27.40;82.30;;;;;;6148685;28;83333;-62
2023/08/23 04:39:22;;;;;;;15.65;9.70;;;27.50;82.10;;;;;;6149195;28;83164;-63
2023/08/23 04:42:23;;;;;;;11.23;8.40;;;27.40;82.20;;;;;;6147529;28;83642;-66
2023/08/23 04:45:24;;;;;;;17.23;9.43;;;27.50;82.30;;;;;;6151206;28;80499;-62
2023/08/23 04:48:26;;;;;;;18.73;9.77;;;27.60;82.00;;;;;;6147430;28;82841;-65
2023/08/23 04:51:27;;;;;;;13.30;9.32;;;27.60;81.50;;;;;;6145283;28;84507;-61
2023/08/23 04:54:28;;;;;;;18.50;9.98;;;27.60;81.80;;;;;;6147450;28;83399;-63
2023/08/23 04:57:28;;;;;;;14.18;9.70;;;27.50;81.60;;;;;;6147953;28;83403;-62
2023/08/23 05:00:29;;;;;;;17.48;9.35;;;27.60;81.50;;;;;;6151734;28;84884;-60
2023/08/23 05:03:29;;;;;;;15.43;9.73;;;27.70;81.40;;;;;;6154357;28;80528;-62
2023/08/23 05:06:30;;;;;;;12.38;9.05;;;27.70;81.20;;;;;;6148854;28;81547;-63
2023/08/23 05:09:30;;;;;;;19.48;11.48;;;27.70;81.20;;;;;;6146434;28;83259;-62
2023/08/23 05:12:31;;;;;;;17.90;10.85;;;27.60;80.70;;;;;;6145560;28;85250;-63
2023/08/23 05:15:32;;;;;;;19.52;10.90;;;27.60;81.20;;;;;;6151563;28;85998;-66
2023/08/23 05:18:32;;;;;;;16.73;10.48;;;27.60;81.30;;;;;;6150902;28;85893;-64
2023/08/23 05:21:33;;;;;;;17.35;11.50;;;27.70;81.40;;;;;;6143040;28;86723;-55
2023/08/23 05:24:34;;;;;;;19.85;11.65;;;27.60;81.30;;;;;;6149612;28;83352;-55
2023/08/23 05:27:35;;;;;;;16.35;11.45;;;27.60;81.70;;;;;;6144095;28;86229;-52
2023/08/23 05:30:36;;;;;;;15.55;11.13;;;27.70;81.50;;;;;;6147953;28;84948;-54
2023/08/23 05:33:39;;;;;;;16.05;11.50;;;27.70;81.80;;;;;;6158496;28;85251;-52
2023/08/23 05:36:39;;;;;;;23.48;12.65;;;27.80;81.60;;;;;;6146729;28;85921;-51
2023/08/23 05:39:40;;;;;;;19.08;13.25;;;27.70;81.80;;;;;;6135812;28;84305;-55
2023/08/23 05:42:40;;;;;;;27.08;15.55;;;27.70;81.80;;;;;;6142881;28;84252;-53
2023/08/23 05:45:41;;;;;;;18.17;13.98;;;27.70;81.60;;;;;;6141398;28;85338;-51
2023/08/23 05:48:42;;;;;;;24.42;15.32;;;27.80;81.70;;;;;;6144205;28;89594;-49
2023/08/23 05:51:42;;;;;;;23.42;16.17;;;27.80;81.20;;;;;;6155260;28;86644;-53
2023/08/23 05:54:43;;;;;;;25.38;16.23;;;27.80;81.40;;;;;;6147225;28;83393;-54
2023/08/23 05:57:44;;;;;;;22.55;17.48;;;27.90;80.80;;;;;;6148557;28;82895;-64
2023/08/23 06:00:44;;;;;;;29.95;19.02;;;27.90;80.80;;;;;;6150211;28;83762;-65
2023/08/23 06:03:45;;;;;;;27.70;19.70;;;27.90;80.50;;;;;;6148387;28;86660;-58
2023/08/23 06:06:46;;;;;;;25.38;18.95;;;27.90;80.40;;;;;;6148601;28;83458;-67
2023/08/23 06:09:46;;;;;;;29.83;19.83;;;28.00;80.20;;;;;;6148759;28;84348;-66
2023/08/23 06:12:47;;;;;;;28.75;20.95;;;27.90;80.00;;;;;;6138716;28;84400;-66
2023/08/23 06:15:47;;;;;;;28.15;20.23;;;28.00;79.80;;;;;;6148344;28;84349;-64
2023/08/23 06:18:48;;;;;;;28.95;21.27;;;28.00;79.60;;;;;;6147440;28;83283;-64
2023/08/23 06:21:48;;;;;;;33.40;22.20;;;27.90;79.50;;;;;;6149994;28;83549;-69
2023/08/23 06:24:49;;;;;;;33.55;22.55;;;28.00;79.40;;;;;;6151252;28;83929;-65
2023/08/23 06:27:49;;;;;;;31.10;22.95;;;28.00;78.80;;;;;;6149395;28;83093;-66
2023/08/23 06:30:50;;;;;;;31.17;22.83;;;27.90;78.70;;;;;;6150123;28;83714;-66
2023/08/23 06:33:50;;;;;;;37.10;24.30;;;27.80;78.70;;;;;;6142325;28;83337;-65
2023/08/23 06:36:51;;;;;;;38.15;22.35;;;27.90;78.90;;;;;;6149400;28;84018;-63
2023/08/23 06:39:51;;;;;;;34.88;24.88;;;27.90;78.40;;;;;;6166070;28;82883;-66
2023/08/23 06:42:52;;;;;;;40.08;27.15;;;27.70;78.40;;;;;;6121509;28;83191;-65
2023/08/23 06:45:52;;;;;;;31.60;23.58;;;27.60;79.80;;;;;;6132921;28;85012;-65
2023/08/23 06:48:53;;;;;;;36.30;23.80;;;27.70;79.60;;;;;;6147591;28;83696;-70
2023/08/23 06:51:54;;;;;;;31.83;23.58;;;27.70;79.70;;;;;;6123399;28;90112;-64
2023/08/23 06:54:54;;;;;;;33.67;23.63;;;27.70;79.90;;;;;;6142548;28;85450;-64
2023/08/23 06:57:55;;;;;;;27.88;22.80;;;27.80;79.80;;;;;;6146618;28;84523;-71
2023/08/23 07:00:56;;;;;;;30.20;23.08;;;27.90;79.40;;;;;;6146087;28;89640;-67
2023/08/23 07:03:56;;;;;;;34.80;24.48;;;27.90;78.80;;;;;;6141746;28;85246;-64
2023/08/23 07:06:57;;;;;;;28.08;22.70;;;27.80;79.20;;;;;;6130786;28;87851;-66
2023/08/23 07:09:57;;;;;;;39.85;26.02;;;27.90;79.10;;;;;;6143997;28;83481;-63
2023/08/23 07:12:58;;;;;;;35.47;25.23;;;28.00;78.70;;;;;;6125962;28;88985;-61
2023/08/23 07:15:58;;;;;;;38.70;25.77;;;27.90;79.00;;;;;;6137916;28;84828;-60
2023/08/23 07:19:01;;;;;;;31.15;25.00;;;28.00;78.00;;;;;;6145287;28;83632;-59
2023/08/23 07:22:02;;;;;;;34.63;25.85;;;27.90;78.00;;;;;;6150679;28;83099;-58
2023/08/23 07:25:02;;;;;;;38.30;24.20;;;27.80;78.00;;;;;;6145174;28;84092;-60
2023/08/23 07:28:03;;;;;;;30.75;23.58;;;27.80;78.40;;;;;;6138359;28;83756;-58
2023/08/23 07:31:03;;;;;;;38.25;24.25;;;27.90;78.10;;;;;;6132701;28;84920;-71
2023/08/23 07:34:04;;;;;;;34.63;24.80;;;28.00;77.50;;;;;;6150647;28;83184;-68
2023/08/23 07:37:05;;;;;;;31.42;24.83;;;27.90;77.10;;;;;;6148961;28;83685;-66
2023/08/23 07:40:06;;;;;;;37.05;26.17;;;27.90;77.70;;;;;;6146438;28;83426;-71
2023/08/23 07:43:07;;;;;;;33.17;24.60;;;27.90;78.30;;;;;;6146553;28;91248;-64
2023/08/23 07:46:07;;;;;;;32.03;23.90;;;27.90;78.40;;;;;;6140287;28;83088;-69
2023/08/23 07:49:08;;;;;;;39.88;24.50;;;27.90;78.30;;;;;;6149311;28;83157;-58
2023/08/23 07:52:08;;;;;;;31.92;22.65;;;28.00;78.40;;;;;;6145396;28;83635;-58
2023/08/23 07:55:09;;;;;;;34.03;24.20;;;28.00;78.20;;;;;;6147020;28;83998;-58
2023/08/23 07:58:09;;;;;;;32.67;23.23;;;27.90;78.40;;;;;;6149746;28;83852;-55
2023/08/23 08:01:10;;;;;;;29.73;23.58;;;27.80;78.70;;;;;;6143698;28;86273;-58
2023/08/23 08:04:10;;;;;;;30.95;23.20;;;27.90;78.40;;;;;;6150506;28;83556;-59
2023/08/23 08:07:11;;;;;;;33.58;24.70;;;27.90;78.20;;;;;;6148734;28;82993;-60
2023/08/23 08:10:12;;;;;;;29.92;23.42;;;27.80;78.60;;;;;;6145932;28;83715;-58
2023/08/23 08:13:12;;;;;;;36.83;24.50;;;27.70;79.10;;;;;;6143623;28;84182;-58
2023/08/23 08:16:13;;;;;;;30.58;22.98;;;27.60;79.90;;;;;;6146090;28;84320;-57
2023/08/23 08:19:13;;;;;;;34.22;24.73;;;27.70;79.40;;;;;;6148694;28;83569;-58
2023/08/23 08:22:14;;;;;;;32.25;23.33;;;27.80;79.00;;;;;;6146802;28;85804;-60
2023/08/23 08:25:14;;;;;;;27.95;22.70;;;27.80;78.80;;;;;;6150486;28;83784;-59
2023/08/23 08:28:15;;;;;;;30.73;22.92;;;27.90;79.00;;;;;;6147456;28;83620;-59
2023/08/23 08:31:15;;;;;;;31.00;22.42;;;28.10;78.80;;;;;;6145316;28;85770;-59
2023/08/23 08:34:16;;;;;;;29.60;21.88;;;28.10;77.80;;;;;;6151245;28;85902;-59
2023/08/23 08:37:18;;;;;;;29.65;22.45;;;28.10;77.70;;;;;;6153081;28;82980;-58
2023/08/23 08:40:21;;;;;;;29.75;22.67;;;28.20;77.70;;;;;;6153650;28;84589;-59
2023/08/23 08:43:22;;;;;;;29.77;21.58;;;28.20;77.40;;;;;;6155059;28;82979;-58
2023/08/23 08:46:23;;;;;;;28.92;21.77;;;28.30;77.20;;;;;;6152669;28;84304;-58
2023/08/23 08:49:23;;;;;;;27.60;20.35;;;28.30;76.80;;;;;;6154670;28;85552;-58
2023/08/23 08:52:24;;;;;;;28.27;21.55;;;28.30;76.80;;;;;;6153895;28;83460;-59
2023/08/23 08:55:24;;;;;;;31.70;22.58;;;28.30;76.80;;;;;;6150981;28;84066;-56
2023/08/23 08:58:25;;;;;;;32.97;22.35;;;28.20;76.30;;;;;;6153377;28;83111;-56
2023/08/23 09:01:25;;;;;;;36.30;22.15;;;28.20;76.70;;;;;;6152871;28;83140;-66
2023/08/23 09:04:26;;;;;;;28.75;22.50;;;28.20;76.40;;;;;;6151235;28;83168;-67
2023/08/23 09:07:26;;;;;;;31.95;24.42;;;28.00;77.00;;;;;;6151130;28;83920;-69
2023/08/23 09:10:27;;;;;;;32.05;22.60;;;27.90;76.90;;;;;;6151438;28;83004;-67
2023/08/23 09:13:27;;;;;;;29.48;23.25;;;28.00;77.50;;;;;;6150612;28;83894;-61
2023/08/23 09:16:28;;;;;;;33.55;24.73;;;27.90;77.20;;;;;;6145516;28;84239;-61
2023/08/23 09:19:29;;;;;;;37.05;25.13;;;28.00;76.90;;;;;;6154801;28;83235;-55
2023/08/23 09:22:29;;;;;;;36.45;25.58;;;28.10;76.90;;;;;;6152714;28;83804;-58
2023/08/23 09:25:30;;;;;;;39.58;25.98;;;28.00;76.40;;;;;;6153062;28;83255;-54
2023/08/23 09:28:31;;;;;;;40.00;26.10;;;28.00;76.30;;;;;;6152637;28;84054;-55
2023/08/23 09:31:32;;;;;;;30.20;24.45;;;28.00;76.60;;;;;;6144417;28;83342;-55
2023/08/23 09:34:32;;;;;;;37.70;27.83;;;28.00;76.60;;;;;;6148661;28;83178;-57
2023/08/23 09:37:33;;;;;;;42.63;27.48;;;28.00;76.30;;;;;;6151260;28;83550;-56
2023/08/23 09:40:33;;;;;;;35.67;27.10;;;28.00;76.10;;;;;;6151470;28;83638;-58
2023/08/23 09:43:34;;;;;;;35.47;25.77;;;27.90;76.30;;;;;;6147759;28;87271;-56
2023/08/23 09:46:35;;;;;;;35.67;25.08;;;28.00;76.30;;;;;;6150288;28;85154;-54
2023/08/23 09:49:36;;;;;;;35.65;25.85;;;28.00;76.60;;;;;;6149467;28;88353;-56
2023/08/23 09:52:36;;;;;;;35.85;26.42;;;28.00;76.60;;;;;;6139198;28;83559;-55
2023/08/23 09:55:37;;;;;;;33.53;26.05;;;28.00;76.60;;;;;;6139384;28;82969;-59
2023/08/23 09:58:37;;;;;;;38.30;25.27;;;28.00;77.10;;;;;;6150544;28;83001;-63
2023/08/23 10:01:38;;;;;;;37.35;25.92;;;28.00;76.60;;;;;;6151418;28;84168;-60
2023/08/23 10:04:38;;;;;;;36.45;28.17;;;28.00;77.00;;;;;;6149887;28;85184;-61
2023/08/23 10:07:40;;;;;;;36.58;27.67;;;28.00;76.40;;;;;;6146757;28;85235;-62
2023/08/23 10:10:40;;;;;;;34.30;27.38;;;28.00;75.60;;;;;;6151302;28;83292;-67
2023/08/23 10:13:41;;;;;;;38.58;28.33;;;28.00;75.70;;;;;;6140686;28;83981;-66
2023/08/23 10:16:41;;;;;;;36.97;27.58;;;28.00;76.50;;;;;;6150365;28;83438;-66
2023/08/23 10:19:42;;;;;;;44.17;28.48;;;28.00;76.50;;;;;;6150752;28;83195;-72
2023/08/23 10:22:42;;;;;;;37.75;28.13;;;28.00;76.40;;;;;;6147080;28;83641;-68
2023/08/23 10:25:43;;;;;;;38.25;27.48;;;27.70;76.00;;;;;;6140971;28;83207;-65
2023/08/23 10:28:44;;;;;;;38.63;27.95;;;27.80;76.20;;;;;;6124071;28;83011;-66
2023/08/23 10:31:44;;;;;;;39.83;28.73;;;27.70;76.10;;;;;;6127131;28;83490;-65
2023/08/23 10:34:45;;;;;;;36.80;29.35;;;27.80;76.60;;;;;;6126610;28;83249;-68
2023/08/23 10:37:45;;;;;;;35.50;28.77;;;27.90;76.20;;;;;;6126634;28;83727;-66
2023/08/23 10:40:46;;;;;;;41.10;29.70;;;27.90;76.20;;;;;;6125680;28;83454;-67
2023/08/23 10:43:47;;;;;;;43.72;30.75;;;28.00;76.00;;;;;;6126899;28;82981;-66
2023/08/23 10:46:48;;;;;;;41.83;27.98;;;27.90;75.40;;;;;;6126578;28;83117;-66
2023/08/23 10:49:48;;;;;;;41.95;28.25;;;27.90;75.30;;;;;;6126517;28;84686;-67
2023/08/23 10:52:49;;;;;;;40.55;30.98;;;28.10;75.50;;;;;;6123573;28;85022;-66
2023/08/23 10:55:50;;;;;;;38.67;29.67;;;28.10;75.20;;;;;;6125890;28;83248;-66
2023/08/23 10:58:50;;;;;;;43.60;31.63;;;28.10;75.30;;;;;;6126076;28;85100;-66
2023/08/23 11:01:51;;;;;;;39.75;29.30;;;28.20;75.20;;;;;;6126277;28;83038;-63
2023/08/23 11:04:51;;;;;;;43.58;31.33;;;28.30;75.30;;;;;;6122789;28;83278;-64
2023/08/23 11:07:52;;;;;;;42.13;30.92;;;28.20;74.20;;;;;;6125430;28;83274;-62
2023/08/23 11:10:52;;;;;;;52.00;33.30;;;28.30;73.90;;;;;;6124598;28;83419;-59
2023/08/23 11:13:53;;;;;;;50.25;34.38;;;28.30;73.80;;;;;;6124866;28;84570;-59
2023/08/23 11:16:53;;;;;;;48.22;34.33;;;28.30;74.10;;;;;;6117522;28;84993;-59
2023/08/23 11:19:54;;;;;;;42.20;31.13;;;28.40;74.40;;;;;;6124191;28;83552;-59
2023/08/23 11:22:54;;;;;;;42.75;31.40;;;28.50;73.70;;;;;;6121646;28;83258;-57
2023/08/23 11:25:56;;;;;;;37.60;27.13;;;28.50;73.50;;;;;;6123333;28;83407;-59
2023/08/23 11:28:56;;;;;;;41.63;29.80;;;28.60;73.10;;;;;;6123194;28;83445;-68
2023/08/23 11:31:57;;;;;;;40.85;28.33;;;28.60;72.70;;;;;;6123808;28;84550;-66
2023/08/23 11:34:57;;;;;;;38.47;27.05;;;28.50;71.70;;;;;;6124948;28;82885;-67
2023/08/23 11:37:58;;;;;;;42.83;28.52;;;28.50;71.90;;;;;;6124245;28;84010;-66
2023/08/23 11:40:58;;;;;;;38.70;27.42;;;28.50;71.70;;;;;;6123201;28;83431;-63
2023/08/23 11:43:59;;;;;;;43.83;28.27;;;28.60;72.30;;;;;;6122945;28;84705;-65
2023/08/23 11:46:59;;;;;;;38.95;28.00;;;28.60;71.40;;;;;;6124533;28;83891;-65
2023/08/23 11:50:00;;;;;;;39.75;28.70;;;28.60;71.40;;;;;;6123413;28;83095;-65
2023/08/23 11:53:00;;;;;;;42.50;28.42;;;28.70;70.90;;;;;;6122323;28;87902;-68
2023/08/23 11:56:01;;;;;;;39.33;29.45;;;28.70;70.80;;;;;;6123241;28;87373;-65
2023/08/23 11:59:02;;;;;;;37.00;26.08;;;28.70;70.30;;;;;;6122538;28;82750;-62
2023/08/23 12:02:04;;;;;;;34.58;27.05;;;28.80;70.20;;;;;;6122256;28;83053;-64
2023/08/23 12:05:05;;;;;;;37.50;28.27;;;28.80;70.00;;;;;;6124076;28;83190;-60
2023/08/23 12:08:06;;;;;;;34.70;26.65;;;28.80;70.30;;;;;;6127713;28;83447;-60
2023/08/23 12:11:06;;;;;;;39.83;27.08;;;28.80;70.50;;;;;;6125580;28;83328;-60
2023/08/23 12:14:07;;;;;;;35.53;26.88;;;28.90;70.20;;;;;;6124837;28;82995;-58
2023/08/23 12:17:07;;;;;;;36.15;27.08;;;28.90;69.80;;;;;;6128324;28;83864;-59
2023/08/23 12:20:10;;;;;;;33.97;25.80;;;28.90;69.80;;;;;;6125592;28;83012;-59
2023/08/23 12:23:11;;;;;;;33.83;26.25;;;28.90;70.10;;;;;;6127639;28;83448;-55
2023/08/23 12:26:11;;;;;;;31.50;25.35;;;29.00;70.50;;;;;;6123594;28;84660;-57
2023/08/23 12:29:12;;;;;;;36.53;27.08;;;29.00;69.90;;;;;;6128412;28;83387;-59
2023/08/23 12:32:12;;;;;;;30.70;24.48;;;29.00;70.10;;;;;;6129798;28;85688;-59
2023/08/23 12:35:13;;;;;;;31.95;25.50;;;29.00;70.00;;;;;;6131142;28;83508;-59
2023/08/23 12:38:13;;;;;;;29.77;24.73;;;29.10;69.80;;;;;;6126217;28;83359;-58
2023/08/23 12:41:14;;;;;;;33.10;25.50;;;29.10;69.60;;;;;;6129904;28;85428;-57
2023/08/23 12:44:14;;;;;;;33.33;23.75;;;29.10;69.60;;;;;;6128986;28;85603;-56
2023/08/23 12:47:15;;;;;;;30.85;23.63;;;29.20;69.60;;;;;;6130168;28;83175;-58
2023/08/23 12:50:15;;;;;;;30.63;22.38;;;29.20;69.70;;;;;;6125888;28;83122;-56
2023/08/23 12:53:16;;;;;;;33.58;23.88;;;29.20;69.30;;;;;;6126059;28;83792;-55
2023/08/23 12:56:17;;;;;;;29.90;22.67;;;29.20;69.00;;;;;;6126458;28;90273;-55
2023/08/23 12:59:17;;;;;;;29.02;21.55;;;29.20;68.50;;;;;;6128437;28;84548;-58
2023/08/23 13:02:18;;;;;;;25.73;22.00;;;29.20;69.00;;;;;;6127118;28;82959;-57
2023/08/23 13:05:18;;;;;;;33.20;22.77;;;29.20;68.60;;;;;;6128547;28;84343;-59
2023/08/23 13:08:19;;;;;;;30.92;23.15;;;29.20;68.60;;;;;;6125376;28;83595;-58
2023/08/23 13:11:20;;;;;;;31.55;23.38;;;29.30;68.80;;;;;;6127955;28;84549;-58
2023/08/23 13:14:21;;;;;;;36.70;22.75;;;29.20;68.60;;;;;;6129751;28;83328;-56
2023/08/23 13:17:21;;;;;;;28.35;21.88;;;29.20;68.80;;;;;;6127396;28;83595;-56
2023/08/23 13:20:22;;;;;;;26.58;20.83;;;29.20;68.90;;;;;;6129024;28;82860;-62
2023/08/23 13:23:22;;;;;;;31.10;22.10;;;29.20;69.60;;;;;;6136204;28;84637;-65
2023/08/23 13:26:23;;;;;;;25.77;21.50;;;29.20;70.20;;;;;;6153758;28;83968;-63
2023/08/23 13:29:23;;;;;;;31.80;21.80;;;29.20;71.10;;;;;;6153410;28;83316;-64
2023/08/23 13:32:24;;;;;;;28.60;21.70;;;29.20;70.40;;;;;;6145309;28;83976;-63
2023/08/23 13:35:24;;;;;;;28.25;22.83;;;29.10;70.50;;;;;;6149746;28;83490;-62
2023/08/23 13:38:25;;;;;;;26.85;21.05;;;29.10;70.40;;;;;;6149225;28;84449;-55
2023/08/23 13:41:25;;;;;;;27.80;21.60;;;29.10;70.60;;;;;;6152157;28;83332;-56
2023/08/23 13:44:26;;;;;;;28.52;22.27;;;29.10;70.80;;;;;;6153014;28;83125;-58
2023/08/23 13:47:26;;;;;;;25.88;21.27;;;29.10;71.10;;;;;;6150136;28;83205;-59
2023/08/23 13:50:27;;;;;;;31.10;22.85;;;29.10;71.30;;;;;;6147702;28;83435;-58
2023/08/23 13:53:27;;;;;;;28.17;22.27;;;29.20;71.50;;;;;;6150785;28;83088;-58
2023/08/23 13:56:28;;;;;;;24.85;21.58;;;29.20;72.20;;;;;;6152177;28;83258;-59
2023/08/23 13:59:28;;;;;;;27.52;21.45;;;29.20;71.60;;;;;;6151061;28;84401;-60
2023/08/23 14:02:29;;;;;;;25.88;20.88;;;29.20;71.30;;;;;;6151501;28;83871;-58
2023/08/23 14:05:29;;;;;;;31.15;21.15;;;29.20;71.00;;;;;;6148520;28;84155;-59
2023/08/23 14:08:30;;;;;;;24.80;21.02;;;29.10;70.50;;;;;;6152245;28;83333;-59
2023/08/23 14:11:30;;;;;;;24.95;21.63;;;29.10;70.20;;;;;;6149589;28;85106;-58
2023/08/23 14:14:31;;;;;;;25.73;20.48;;;29.10;70.10;;;;;;6150957;28;83226;-55
2023/08/23 14:17:31;;;;;;;30.80;20.52;;;29.10;70.00;;;;;;6150419;28;85633;-59
2023/08/23 14:20:32;;;;;;;27.60;21.27;;;29.10;70.00;;;;;;6147855;28;90556;-59
2023/08/23 14:23:32;;;;;;;24.42;20.88;;;29.10;70.10;;;;;;6151649;28;83715;-59
2023/08/23 14:26:33;;;;;;;28.83;20.33;;;29.10;70.50;;;;;;6150886;28;83807;-59
2023/08/23 14:29:33;;;;;;;33.15;21.25;;;29.10;71.00;;;;;;6150762;28;83546;-56
2023/08/23 14:32:34;;;;;;;27.98;22.05;;;29.10;70.50;;;;;;6151833;28;83133;-57
2023/08/23 14:35:35;;;;;;;28.48;22.23;;;29.10;70.40;;;;;;6150089;28;84908;-56
2023/08/23 14:38:36;;;;;;;25.88;19.05;;;29.10;70.20;;;;;;6151979;28;84311;-57
2023/08/23 14:41:36;;;;;;;25.77;20.02;;;29.10;70.40;;;;;;6148596;28;83011;-59
2023/08/23 14:44:40;;;;;;;27.80;21.35;;;29.00;70.10;;;;;;6137068;28;83077;-57
2023/08/23 14:47:40;;;;;;;24.90;20.40;;;29.00;69.80;;;;;;6150019;28;88119;-56
2023/08/23 14:50:41;;;;;;;25.40;19.73;;;28.90;70.20;;;;;;6147638;28;83089;-66
2023/08/23 14:53:41;;;;;;;24.02;19.77;;;28.90;70.70;;;;;;6149142;28;83419;-63
2023/08/23 14:56:42;;;;;;;31.02;21.00;;;29.00;70.70;;;;;;6148481;28;83400;-63
2023/08/23 14:59:42;;;;;;;27.80;19.75;;;29.00;70.70;;;;;;6141592;28;85667;-66
2023/08/23 15:02:43;;;;;;;26.73;20.63;;;29.00;70.70;;;;;;6150505;28;83156;-70
2023/08/23 15:05:43;;;;;;;26.45;19.52;;;29.00;70.50;;;;;;6150684;28;82947;-68
2023/08/23 15:08:44;;;;;;;24.20;17.95;;;29.10;70.30;;;;;;6148292;28;83638;-65
2023/08/23 15:11:44;;;;;;;19.05;16.25;;;29.00;69.70;;;;;;6149132;28;85200;-64
2023/08/23 15:14:45;;;;;;;20.90;16.80;;;29.00;69.60;;;;;;6149706;28;83219;-66
2023/08/23 15:17:46;;;;;;;14.80;10.50;;;29.00;69.60;;;;;;6150432;28;85914;-65
2023/08/23 15:20:46;;;;;;;15.38;11.52;;;28.90;67.30;;;;;;6149573;28;83458;-64